sensor_id;sensor_type;location;lat;lon;timestamp;pressure;altitude;pressure_sealevel;temperature;humidity
10881;BME280;5493;48.884;8.338;2023-07-29T00:02:07;99706.16;;;20.57;100.00
10881;BME280;5493;48.884;8.338;2023-07-29T00:04:34;99702.91;;;20.55;100.00
10881;BME280;5493;48.884;8.338;2023-07-29T00:07:00;99694.16;;;20.72;100.00
10881;BME280;5493;48.884;8.338;2023-07-29T00:09:28;99694.78;;;20.50;100.00
10881;BME280;5493;48.884;8.338;2023-07-29T00:11:55;99699.81;;;20.24;100.00
10881;BME280;5493;48.884;8.338;2023-07-29T00:14:21;99700.56;;;20.48;100.00
10881;BME280;5493;48.884;8.338;2023-07-29T00:16:48;99708.78;;;20.30;100.00
10881;BME280;5493;48.884;8.338;2023-07-29T00:19:14;99705.75;;;20.50;100.00
10881;BME280;5493;48.884;8.338;2023-07-29T00:21:41;99708.25;;;20.46;100.00
10881;BME280;5493;48.884;8.338;2023-07-29T00:24:07;99714.56;;;20.28;100.00
10881;BME280;5493;48.884;8.338;2023-07-29T00:26:35;99702.34;;;20.21;100.00
10881;BME280;5493;48.884;8.338;2023-07-29T00:29:02;99695.00;;;20.16;100.00
10881;BME280;5493;48.884;8.338;2023-07-29T00:31:28;99700.94;;;20.04;100.00
10881;BME280;5493;48.884;8.338;2023-07-29T00:33:55;99702.56;;;20.24;100.00
10881;BME280;5493;48.884;8.338;2023-07-29T00:36:23;99702.56;;;20.43;100.00
10881;BME280;5493;48.884;8.338;2023-07-29T00:38:50;99700.72;;;20.38;100.00
10881;BME280;5493;48.884;8.338;2023-07-29T00:41:18;99691.47;;;20.34;100.00
10881;BME280;5493;48.884;8.338;2023-07-29T00:43:46;99695.22;;;20.57;100.00
10881;BME280;5493;48.884;8.338;2023-07-29T00:46:13;99696.31;;;20.56;100.00
10881;BME280;5493;48.884;8.338;2023-07-29T00:48:40;99695.72;;;20.59;100.00
10881;BME280;5493;48.884;8.338;2023-07-29T00:51:06;99705.50;;;20.65;100.00
10881;BME280;5493;48.884;8.338;2023-07-29T00:53:33;99696.72;;;20.49;100.00
10881;BME280;5493;48.884;8.338;2023-07-29T00:56:00;99698.25;;;20.37;100.00
10881;BME280;5493;48.884;8.338;2023-07-29T00:58:26;99681.91;;;20.13;100.00
10881;BME280;5493;48.884;8.338;2023-07-29T01:00:54;99680.38;;;20.26;100.00
10881;BME280;5493;48.884;8.338;2023-07-29T01:03:21;99674.97;;;20.39;100.00
10881;BME280;5493;48.884;8.338;2023-07-29T01:05:56;99668.22;;;20.50;100.00
10881;BME280;5493;48.884;8.338;2023-07-29T01:08:32;99666.81;;;20.67;100.00
10881;BME280;5493;48.884;8.338;2023-07-29T01:11:05;99670.53;;;20.43;100.00
10881;BME280;5493;48.884;8.338;2023-07-29T01:13:44;99665.09;;;20.57;100.00
10881;BME280;5493;48.884;8.338;2023-07-29T01:16:17;99654.06;;;20.11;100.00
10881;BME280;5493;48.884;8.338;2023-07-29T01:18:47;99659.88;;;20.42;100.00
10881;BME280;5493;48.884;8.338;2023-07-29T01:21:16;99650.50;;;20.29;100.00
10881;BME280;5493;48.884;8.338;2023-07-29T01:23:44;99658.72;;;20.29;100.00
10881;BME280;5493;48.884;8.338;2023-07-29T01:26:11;99659.72;;;20.33;100.00
10881;BME280;5493;48.884;8.338;2023-07-29T01:28:38;99654.38;;;20.23;100.00
10881;BME280;5493;48.884;8.338;2023-07-29T01:31:10;99657.72;;;20.20;100.00
10881;BME280;5493;48.884;8.338;2023-07-29T01:33:40;99650.19;;;20.12;100.00
10881;BME280;5493;48.884;8.338;2023-07-29T01:36:13;99649.31;;;19.98;100.00
10881;BME280;5493;48.884;8.338;2023-07-29T01:38:42;99644.38;;;20.00;100.00
10881;BME280;5493;48.884;8.338;2023-07-29T01:41:12;99641.09;;;20.17;100.00
10881;BME280;5493;48.884;8.338;2023-07-29T01:43:40;99639.66;;;20.38;100.00
10881;BME280;5493;48.884;8.338;2023-07-29T01:46:09;99638.50;;;20.25;100.00
10881;BME280;5493;48.884;8.338;2023-07-29T01:48:37;99636.25;;;20.27;100.00
10881;BME280;5493;48.884;8.338;2023-07-29T01:51:03;99642.19;;;20.34;100.00
10881;BME280;5493;48.884;8.338;2023-07-29T01:53:30;99640.88;;;20.32;100.00
10881;BME280;5493;48.884;8.338;2023-07-29T01:55:56;99648.78;;;20.33;100.00
10881;BME280;5493;48.884;8.338;2023-07-29T01:58:25;99655.00;;;20.39;100.00
10881;BME280;5493;48.884;8.338;2023-07-29T02:00:51;99648.63;;;20.43;100.00
10881;BME280;5493;48.884;8.338;2023-07-29T02:03:17;99661.59;;;20.51;100.00
10881;BME280;5493;48.884;8.338;2023-07-29T02:05:44;99654.91;;;20.25;100.00
10881;BME280;5493;48.884;8.338;2023-07-29T02:08:11;99655.53;;;20.03;100.00
10881;BME280;5493;48.884;8.338;2023-07-29T02:10:37;99649.69;;;19.91;100.00
10881;BME280;5493;48.884;8.338;2023-07-29T02:13:04;99654.34;;;20.09;100.00
10881;BME280;5493;48.884;8.338;2023-07-29T02:15:31;99648.13;;;20.04;100.00
10881;BME280;5493;48.884;8.338;2023-07-29T02:17:58;99650.63;;;20.00;100.00
10881;BME280;5493;48.884;8.338;2023-07-29T02:20:26;99640.28;;;19.97;100.00
10881;BME280;5493;48.884;8.338;2023-07-29T02:22:52;99637.63;;;20.11;100.00
10881;BME280;5493;48.884;8.338;2023-07-29T02:25:19;99636.28;;;20.08;100.00
10881;BME280;5493;48.884;8.338;2023-07-29T02:27:46;99635.09;;;20.14;100.00
10881;BME280;5493;48.884;8.338;2023-07-29T02:30:12;99645.31;;;20.28;100.00
10881;BME280;5493;48.884;8.338;2023-07-29T02:32:40;99641.25;;;20.06;100.00
10881;BME280;5493;48.884;8.338;2023-07-29T02:35:07;99639.34;;;19.88;100.00
10881;BME280;5493;48.884;8.338;2023-07-29T02:37:35;99648.88;;;20.09;100.00
10881;BME280;5493;48.884;8.338;2023-07-29T02:40:01;99655.28;;;19.62;100.00
10881;BME280;5493;48.884;8.338;2023-07-29T02:42:29;99654.69;;;19.47;100.00
10881;BME280;5493;48.884;8.338;2023-07-29T02:44:55;99645.88;;;19.50;100.00
10881;BME280;5493;48.884;8.338;2023-07-29T02:47:22;99652.41;;;19.54;100.00
10881;BME280;5493;48.884;8.338;2023-07-29T02:49:50;99658.53;;;19.64;100.00
10881;BME280;5493;48.884;8.338;2023-07-29T02:52:16;99651.44;;;19.40;100.00
10881;BME280;5493;48.884;8.338;2023-07-29T02:54:43;99655.28;;;19.62;100.00
10881;BME280;5493;48.884;8.338;2023-07-29T02:57:09;99645.53;;;19.75;100.00
10881;BME280;5493;48.884;8.338;2023-07-29T02:59:36;99637.84;;;19.58;100.00
10881;BME280;5493;48.884;8.338;2023-07-29T03:02:02;99631.28;;;19.78;100.00
10881;BME280;5493;48.884;8.338;2023-07-29T03:04:29;99627.03;;;20.04;100.00
10881;BME280;5493;48.884;8.338;2023-07-29T03:06:57;99627.47;;;20.11;100.00
10881;BME280;5493;48.884;8.338;2023-07-29T03:09:24;99607.94;;;20.18;100.00
10881;BME280;5493;48.884;8.338;2023-07-29T03:11:51;99610.94;;;20.03;100.00
10881;BME280;5493;48.884;8.338;2023-07-29T03:14:20;99607.13;;;20.18;100.00
10881;BME280;5493;48.884;8.338;2023-07-29T03:16:46;99612.97;;;20.30;100.00
10881;BME280;5493;48.884;8.338;2023-07-29T03:19:13;99607.03;;;20.23;100.00
10881;BME280;5493;48.884;8.338;2023-07-29T03:21:39;99610.16;;;20.16;100.00
10881;BME280;5493;48.884;8.338;2023-07-29T03:24:07;99611.03;;;20.30;100.00
10881;BME280;5493;48.884;8.338;2023-07-29T03:26:34;99608.84;;;20.32;100.00
10881;BME280;5493;48.884;8.338;2023-07-29T03:29:00;99619.78;;;20.32;100.00
10881;BME280;5493;48.884;8.338;2023-07-29T03:31:26;99605.66;;;20.06;100.00
10881;BME280;5493;48.884;8.338;2023-07-29T03:33:53;99605.19;;;19.86;100.00
10881;BME280;5493;48.884;8.338;2023-07-29T03:36:20;99601.97;;;19.97;100.00
10881;BME280;5493;48.884;8.338;2023-07-29T03:38:47;99587.13;;;20.03;100.00
10881;BME280;5493;48.884;8.338;2023-07-29T03:41:15;99570.50;;;20.32;100.00
10881;BME280;5493;48.884;8.338;2023-07-29T03:43:41;99579.38;;;20.24;100.00
10881;BME280;5493;48.884;8.338;2023-07-29T03:46:08;99585.34;;;20.26;100.00
10881;BME280;5493;48.884;8.338;2023-07-29T03:48:35;99613.63;;;20.22;100.00
10881;BME280;5493;48.884;8.338;2023-07-29T03:51:01;99642.94;;;20.21;100.00
10881;BME280;5493;48.884;8.338;2023-07-29T03:53:28;99626.25;;;20.04;100.00
10881;BME280;5493;48.884;8.338;2023-07-29T03:55:54;99636.31;;;20.22;100.00
10881;BME280;5493;48.884;8.338;2023-07-29T03:58:22;99635.59;;;20.17;100.00
10881;BME280;5493;48.884;8.338;2023-07-29T04:00:49;99641.03;;;19.84;100.00
10881;BME280;5493;48.884;8.338;2023-07-29T04:03:15;99630.38;;;20.01;100.00
10881;BME280;5493;48.884;8.338;2023-07-29T04:05:42;99625.75;;;20.15;100.00
10881;BME280;5493;48.884;8.338;2023-07-29T04:08:08;99625.25;;;20.32;100.00
10881;BME280;5493;48.884;8.338;2023-07-29T04:10:35;99624.66;;;20.35;100.00
10881;BME280;5493;48.884;8.338;2023-07-29T04:13:03;99618.38;;;20.48;100.00
10881;BME280;5493;48.884;8.338;2023-07-29T04:15:31;99623.25;;;20.51;100.00
10881;BME280;5493;48.884;8.338;2023-07-29T04:17:58;99624.91;;;20.52;100.00
10881;BME280;5493;48.884;8.338;2023-07-29T04:20:25;99622.97;;;20.53;100.00
10881;BME280;5493;48.884;8.338;2023-07-29T04:22:51;99617.03;;;20.78;100.00
10881;BME280;5493;48.884;8.338;2023-07-29T04:25:18;99613.78;;;20.90;100.00
10881;BME280;5493;48.884;8.338;2023-07-29T04:27:44;99609.53;;;20.97;100.00
10881;BME280;5493;48.884;8.338;2023-07-29T04:30:11;99602.03;;;21.17;100.00
10881;BME280;5493;48.884;8.338;2023-07-29T04:32:39;99606.81;;;21.11;100.00
10881;BME280;5493;48.884;8.338;2023-07-29T04:35:07;99607.63;;;21.12;100.00
10881;BME280;5493;48.884;8.338;2023-07-29T04:37:34;99612.22;;;21.16;100.00
10881;BME280;5493;48.884;8.338;2023-07-29T04:40:00;99607.84;;;21.15;100.00
10881;BME280;5493;48.884;8.338;2023-07-29T04:42:27;99617.38;;;21.18;100.00
10881;BME280;5493;48.884;8.338;2023-07-29T04:44:54;99614.72;;;21.13;100.00
10881;BME280;5493;48.884;8.338;2023-07-29T04:47:20;99610.75;;;21.05;100.00
10881;BME280;5493;48.884;8.338;2023-07-29T04:49:48;99621.13;;;21.22;100.00
10881;BME280;5493;48.884;8.338;2023-07-29T04:52:15;99621.59;;;20.83;100.00
10881;BME280;5493;48.884;8.338;2023-07-29T04:54:41;99614.28;;;20.78;100.00
10881;BME280;5493;48.884;8.338;2023-07-29T04:57:08;99615.63;;;20.94;100.00
10881;BME280;5493;48.884;8.338;2023-07-29T04:59:34;99619.97;;;20.82;100.00
10881;BME280;5493;48.884;8.338;2023-07-29T05:02:01;99623.03;;;20.94;100.00
10881;BME280;5493;48.884;8.338;2023-07-29T05:04:27;99618.69;;;21.20;100.00
10881;BME280;5493;48.884;8.338;2023-07-29T05:06:55;99625.19;;;21.10;100.00
10881;BME280;5493;48.884;8.338;2023-07-29T05:09:21;99628.94;;;21.15;100.00
10881;BME280;5493;48.884;8.338;2023-07-29T05:11:48;99626.00;;;21.11;100.00
10881;BME280;5493;48.884;8.338;2023-07-29T05:14:16;99618.28;;;21.27;100.00
10881;BME280;5493;48.884;8.338;2023-07-29T05:16:43;99618.25;;;20.99;100.00
10881;BME280;5493;48.884;8.338;2023-07-29T05:19:09;99630.72;;;21.05;100.00
10881;BME280;5493;48.884;8.338;2023-07-29T05:21:37;99622.22;;;21.34;100.00
10881;BME280;5493;48.884;8.338;2023-07-29T05:24:05;99626.88;;;21.47;100.00
10881;BME280;5493;48.884;8.338;2023-07-29T05:26:32;99632.44;;;21.70;100.00
10881;BME280;5493;48.884;8.338;2023-07-29T05:28:58;99622.28;;;21.70;100.00
10881;BME280;5493;48.884;8.338;2023-07-29T05:31:25;99615.84;;;21.75;100.00
10881;BME280;5493;48.884;8.338;2023-07-29T05:33:51;99623.06;;;21.71;100.00
10881;BME280;5493;48.884;8.338;2023-07-29T05:36:18;99623.13;;;21.43;100.00
10881;BME280;5493;48.884;8.338;2023-07-29T05:38:44;99614.63;;;21.67;100.00
10881;BME280;5493;48.884;8.338;2023-07-29T05:41:12;99607.31;;;21.76;100.00
10881;BME280;5493;48.884;8.338;2023-07-29T05:43:39;99617.47;;;21.76;100.00
10881;BME280;5493;48.884;8.338;2023-07-29T05:46:07;99616.81;;;22.06;100.00
10881;BME280;5493;48.884;8.338;2023-07-29T05:48:34;99619.66;;;22.01;100.00
10881;BME280;5493;48.884;8.338;2023-07-29T05:51:00;99622.78;;;22.08;100.00
10881;BME280;5493;48.884;8.338;2023-07-29T05:53:27;99627.25;;;22.04;100.00
10881;BME280;5493;48.884;8.338;2023-07-29T05:55:53;99631.88;;;21.95;100.00
10881;BME280;5493;48.884;8.338;2023-07-29T05:58:21;99634.63;;;21.95;100.00
10881;BME280;5493;48.884;8.338;2023-07-29T06:00:48;99639.38;;;21.89;100.00
10881;BME280;5493;48.884;8.338;2023-07-29T06:03:14;99644.09;;;21.75;100.00
10881;BME280;5493;48.884;8.338;2023-07-29T06:05:41;99643.69;;;21.95;100.00
10881;BME280;5493;48.884;8.338;2023-07-29T06:08:07;99654.66;;;21.82;100.00
10881;BME280;5493;48.884;8.338;2023-07-29T06:10:34;99654.50;;;21.65;100.00
10881;BME280;5493;48.884;8.338;2023-07-29T06:13:00;99662.28;;;21.71;100.00
10881;BME280;5493;48.884;8.338;2023-07-29T06:15:28;99674.22;;;21.67;100.00
10881;BME280;5493;48.884;8.338;2023-07-29T06:17:55;99673.09;;;21.54;100.00
10881;BME280;5493;48.884;8.338;2023-07-29T06:20:21;99674.94;;;21.58;100.00
10881;BME280;5493;48.884;8.338;2023-07-29T06:22:48;99674.41;;;21.56;100.00
10881;BME280;5493;48.884;8.338;2023-07-29T06:25:14;99684.06;;;21.68;100.00
10881;BME280;5493;48.884;8.338;2023-07-29T06:27:41;99690.16;;;21.65;100.00
10881;BME280;5493;48.884;8.338;2023-07-29T06:30:08;99688.00;;;21.75;100.00
10881;BME280;5493;48.884;8.338;2023-07-29T06:32:36;99682.84;;;21.74;100.00
10881;BME280;5493;48.884;8.338;2023-07-29T06:35:02;99681.69;;;21.75;100.00
10881;BME280;5493;48.884;8.338;2023-07-29T06:37:29;99689.84;;;21.80;100.00
10881;BME280;5493;48.884;8.338;2023-07-29T06:39:55;99691.78;;;21.66;100.00
10881;BME280;5493;48.884;8.338;2023-07-29T06:42:22;99698.78;;;21.72;100.00
10881;BME280;5493;48.884;8.338;2023-07-29T06:44:48;99688.03;;;21.62;100.00
10881;BME280;5493;48.884;8.338;2023-07-29T06:47:15;99697.81;;;21.40;100.00
10881;BME280;5493;48.884;8.338;2023-07-29T06:49:42;99690.16;;;21.65;100.00
10881;BME280;5493;48.884;8.338;2023-07-29T06:52:09;99693.53;;;21.62;100.00
10881;BME280;5493;48.884;8.338;2023-07-29T06:54:35;99701.56;;;21.44;100.00
10881;BME280;5493;48.884;8.338;2023-07-29T06:57:02;99686.50;;;21.69;100.00
10881;BME280;5493;48.884;8.338;2023-07-29T06:59:29;99695.06;;;21.54;100.00
10881;BME280;5493;48.884;8.338;2023-07-29T07:01:55;99690.69;;;21.67;100.00
10881;BME280;5493;48.884;8.338;2023-07-29T07:04:21;99689.75;;;21.71;100.00
10881;BME280;5493;48.884;8.338;2023-07-29T07:06:49;99684.53;;;21.83;100.00
10881;BME280;5493;48.884;8.338;2023-07-29T07:09:16;99679.75;;;22.02;100.00
10881;BME280;5493;48.884;8.338;2023-07-29T07:11:42;99666.16;;;22.20;100.00
10881;BME280;5493;48.884;8.338;2023-07-29T07:14:09;99661.72;;;22.32;100.00
10881;BME280;5493;48.884;8.338;2023-07-29T07:16:35;99657.50;;;22.71;100.00
10881;BME280;5493;48.884;8.338;2023-07-29T07:19:04;99665.91;;;22.74;100.00
10881;BME280;5493;48.884;8.338;2023-07-29T07:21:31;99656.09;;;22.60;100.00
10881;BME280;5493;48.884;8.338;2023-07-29T07:23:59;99660.97;;;22.85;100.00
10881;BME280;5493;48.884;8.338;2023-07-29T07:26:26;99654.88;;;22.96;100.00
10881;BME280;5493;48.884;8.338;2023-07-29T07:28:53;99657.34;;;23.46;100.00
10881;BME280;5493;48.884;8.338;2023-07-29T07:31:19;99649.75;;;23.60;100.00
10881;BME280;5493;48.884;8.338;2023-07-29T07:33:46;99653.78;;;23.45;100.00
10881;BME280;5493;48.884;8.338;2023-07-29T07:36:12;99640.94;;;23.32;100.00
10881;BME280;5493;48.884;8.338;2023-07-29T07:38:39;99641.88;;;23.93;100.00
10881;BME280;5493;48.884;8.338;2023-07-29T07:41:07;99648.50;;;24.00;100.00
10881;BME280;5493;48.884;8.338;2023-07-29T07:43:33;99645.13;;;24.38;100.00
10881;BME280;5493;48.884;8.338;2023-07-29T07:46:00;99646.75;;;24.30;100.00
10881;BME280;5493;48.884;8.338;2023-07-29T07:48:27;99646.72;;;24.05;100.00
10881;BME280;5493;48.884;8.338;2023-07-29T07:50:53;99665.84;;;23.92;100.00
10881;BME280;5493;48.884;8.338;2023-07-29T07:53:20;99667.22;;;23.56;100.00
10881;BME280;5493;48.884;8.338;2023-07-29T07:55:46;99677.41;;;23.46;100.00
10881;BME280;5493;48.884;8.338;2023-07-29T07:58:14;99672.66;;;23.38;100.00
10881;BME280;5493;48.884;8.338;2023-07-29T08:00:41;99665.63;;;23.55;100.00
10881;BME280;5493;48.884;8.338;2023-07-29T08:03:08;99654.53;;;24.20;100.00
10881;BME280;5493;48.884;8.338;2023-07-29T08:05:34;99652.38;;;24.60;100.00
10881;BME280;5493;48.884;8.338;2023-07-29T08:08:01;99654.78;;;25.25;100.00
10881;BME280;5493;48.884;8.338;2023-07-29T08:10:27;99660.59;;;25.61;100.00
10881;BME280;5493;48.884;8.338;2023-07-29T08:12:54;99655.16;;;25.44;100.00
10881;BME280;5493;48.884;8.338;2023-07-29T08:15:21;99670.84;;;25.23;100.00
10881;BME280;5493;48.884;8.338;2023-07-29T08:17:48;99659.47;;;24.86;100.00
10881;BME280;5493;48.884;8.338;2023-07-29T08:20:14;99667.41;;;24.88;100.00
10881;BME280;5493;48.884;8.338;2023-07-29T08:22:41;99669.28;;;24.15;100.00
10881;BME280;5493;48.884;8.338;2023-07-29T08:25:08;99666.69;;;24.44;100.00
10881;BME280;5493;48.884;8.338;2023-07-29T08:27:34;99673.94;;;24.58;100.00
10881;BME280;5493;48.884;8.338;2023-07-29T08:30:01;99676.88;;;24.53;100.00
10881;BME280;5493;48.884;8.338;2023-07-29T08:32:29;99680.22;;;24.75;100.00
10881;BME280;5493;48.884;8.338;2023-07-29T08:34:55;99678.34;;;24.33;100.00
10881;BME280;5493;48.884;8.338;2023-07-29T08:37:22;99686.94;;;24.31;100.00
10881;BME280;5493;48.884;8.338;2023-07-29T08:39:48;99709.13;;;24.09;100.00
10881;BME280;5493;48.884;8.338;2023-07-29T08:42:16;99710.03;;;23.79;100.00
10881;BME280;5493;48.884;8.338;2023-07-29T08:44:45;99721.13;;;23.48;100.00
10881;BME280;5493;48.884;8.338;2023-07-29T08:47:15;99737.94;;;23.16;100.00
10881;BME280;5493;48.884;8.338;2023-07-29T08:49:43;99739.34;;;22.60;100.00
10881;BME280;5493;48.884;8.338;2023-07-29T08:52:11;99756.59;;;22.52;100.00
10881;BME280;5493;48.884;8.338;2023-07-29T08:54:38;99756.69;;;22.11;100.00
10881;BME280;5493;48.884;8.338;2023-07-29T08:57:06;99766.28;;;21.59;100.00
10881;BME280;5493;48.884;8.338;2023-07-29T08:59:33;99758.97;;;21.68;100.00
10881;BME280;5493;48.884;8.338;2023-07-29T09:01:59;99769.81;;;21.46;100.00
10881;BME280;5493;48.884;8.338;2023-07-29T09:04:26;99761.81;;;21.49;100.00
10881;BME280;5493;48.884;8.338;2023-07-29T09:06:55;99760.97;;;21.35;100.00
10881;BME280;5493;48.884;8.338;2023-07-29T09:09:22;99748.28;;;21.39;100.00
10881;BME280;5493;48.884;8.338;2023-07-29T09:11:48;99738.00;;;21.18;100.00
10881;BME280;5493;48.884;8.338;2023-07-29T09:14:15;99731.00;;;21.39;100.00
10881;BME280;5493;48.884;8.338;2023-07-29T09:16:42;99738.13;;;21.40;100.00
10881;BME280;5493;48.884;8.338;2023-07-29T09:19:08;99752.34;;;21.42;100.00
10881;BME280;5493;48.884;8.338;2023-07-29T09:21:38;99757.03;;;21.41;100.00
10881;BME280;5493;48.884;8.338;2023-07-29T09:24:07;99757.94;;;21.37;100.00
10881;BME280;5493;48.884;8.338;2023-07-29T09:26:33;99754.28;;;21.55;100.00
10881;BME280;5493;48.884;8.338;2023-07-29T09:29:00;99759.09;;;21.63;100.00
10881;BME280;5493;48.884;8.338;2023-07-29T09:31:28;99758.88;;;21.73;100.00
10881;BME280;5493;48.884;8.338;2023-07-29T09:33:56;99758.38;;;21.98;100.00
10881;BME280;5493;48.884;8.338;2023-07-29T09:36:23;99753.97;;;21.97;100.00
10881;BME280;5493;48.884;8.338;2023-07-29T09:38:52;99749.31;;;21.98;100.00
10881;BME280;5493;48.884;8.338;2023-07-29T09:41:22;99746.38;;;22.30;100.00
10881;BME280;5493;48.884;8.338;2023-07-29T09:43:55;99727.50;;;22.95;100.00
10881;BME280;5493;48.884;8.338;2023-07-29T09:46:23;99736.50;;;23.49;100.00
10881;BME280;5493;48.884;8.338;2023-07-29T09:48:53;99738.44;;;23.18;100.00
10881;BME280;5493;48.884;8.338;2023-07-29T09:51:21;99749.97;;;22.97;100.00
10881;BME280;5493;48.884;8.338;2023-07-29T09:53:49;99742.03;;;23.27;100.00
10881;BME280;5493;48.884;8.338;2023-07-29T09:56:16;99752.53;;;23.47;100.00
10881;BME280;5493;48.884;8.338;2023-07-29T09:58:44;99755.00;;;23.57;100.00
10881;BME280;5493;48.884;8.338;2023-07-29T10:01:12;99747.19;;;23.20;100.00
10881;BME280;5493;48.884;8.338;2023-07-29T10:03:39;99747.72;;;23.61;100.00
10881;BME280;5493;48.884;8.338;2023-07-29T10:06:07;99751.06;;;23.49;100.00
10881;BME280;5493;48.884;8.338;2023-07-29T10:08:33;99748.25;;;23.41;100.00
10881;BME280;5493;48.884;8.338;2023-07-29T10:11:05;99754.22;;;23.34;100.00
10881;BME280;5493;48.884;8.338;2023-07-29T10:13:32;99757.69;;;23.48;100.00
10881;BME280;5493;48.884;8.338;2023-07-29T10:16:00;99755.00;;;23.57;100.00
10881;BME280;5493;48.884;8.338;2023-07-29T10:18:28;99760.38;;;23.62;100.00
10881;BME280;5493;48.884;8.338;2023-07-29T10:20:57;99764.19;;;23.44;100.00
10881;BME280;5493;48.884;8.338;2023-07-29T10:23:25;99757.16;;;23.77;100.00
10881;BME280;5493;48.884;8.338;2023-07-29T10:25:57;99764.66;;;23.94;100.00
10881;BME280;5493;48.884;8.338;2023-07-29T10:28:29;99760.44;;;23.96;100.00
10881;BME280;5493;48.884;8.338;2023-07-29T10:30:56;99749.78;;;24.12;100.00
10881;BME280;5493;48.884;8.338;2023-07-29T10:33:24;99748.06;;;24.16;100.00
10881;BME280;5493;48.884;8.338;2023-07-29T10:35:52;99747.72;;;24.35;100.00
10881;BME280;5493;48.884;8.338;2023-07-29T10:38:21;99751.78;;;24.37;100.00
10881;BME280;5493;48.884;8.338;2023-07-29T10:40:51;99743.19;;;24.73;100.00
10881;BME280;5493;48.884;8.338;2023-07-29T10:43:24;99741.06;;;24.62;100.00
10881;BME280;5493;48.884;8.338;2023-07-29T10:45:50;99738.63;;;24.94;100.00
10881;BME280;5493;48.884;8.338;2023-07-29T10:48:42;99731.91;;;25.13;100.00
10881;BME280;5493;48.884;8.338;2023-07-29T10:51:26;99724.84;;;24.86;100.00
10881;BME280;5493;48.884;8.338;2023-07-29T10:53:55;99723.44;;;25.26;100.00
10881;BME280;5493;48.884;8.338;2023-07-29T10:56:26;99711.47;;;25.14;100.00
10881;BME280;5493;48.884;8.338;2023-07-29T10:58:55;99712.69;;;24.87;100.00
10881;BME280;5493;48.884;8.338;2023-07-29T11:01:27;99716.69;;;25.07;100.00
10881;BME280;5493;48.884;8.338;2023-07-29T11:04:26;99705.53;;;24.94;100.00
10881;BME280;5493;48.884;8.338;2023-07-29T11:07:18;99714.56;;;25.12;100.00
10881;BME280;5493;48.884;8.338;2023-07-29T11:10:01;99697.53;;;25.39;100.00
10881;BME280;5493;48.884;8.338;2023-07-29T11:12:40;99689.75;;;25.41;100.00
10881;BME280;5493;48.884;8.338;2023-07-29T11:15:21;99691.25;;;25.39;100.00
10881;BME280;5493;48.884;8.338;2023-07-29T11:17:50;99691.41;;;25.34;100.00
10881;BME280;5493;48.884;8.338;2023-07-29T11:20:19;99690.19;;;25.14;100.00
10881;BME280;5493;48.884;8.338;2023-07-29T11:22:46;99681.44;;;25.50;100.00
10881;BME280;5493;48.884;8.338;2023-07-29T11:25:14;99684.28;;;25.33;100.00
10881;BME280;5493;48.884;8.338;2023-07-29T11:27:41;99684.53;;;25.48;100.00
10881;BME280;5493;48.884;8.338;2023-07-29T11:30:09;99679.03;;;25.99;100.00
10881;BME280;5493;48.884;8.338;2023-07-29T11:32:37;99675.84;;;26.09;100.00
10881;BME280;5493;48.884;8.338;2023-07-29T11:35:06;99669.19;;;26.10;100.00
10881;BME280;5493;48.884;8.338;2023-07-29T11:37:34;99665.63;;;26.30;100.00
10881;BME280;5493;48.884;8.338;2023-07-29T11:40:01;99668.78;;;25.99;100.00
10881;BME280;5493;48.884;8.338;2023-07-29T11:42:31;99659.09;;;25.93;100.00
10881;BME280;5493;48.884;8.338;2023-07-29T11:44:58;99657.22;;;26.59;100.00
10881;BME280;5493;48.884;8.338;2023-07-29T11:47:25;99654.13;;;27.06;100.00
10881;BME280;5493;48.884;8.338;2023-07-29T11:49:52;99648.97;;;27.16;100.00
10881;BME280;5493;48.884;8.338;2023-07-29T11:52:19;99633.72;;;27.59;100.00
10881;BME280;5493;48.884;8.338;2023-07-29T11:54:48;99632.09;;;27.21;100.00
10881;BME280;5493;48.884;8.338;2023-07-29T11:57:16;99636.38;;;26.95;100.00
10881;BME280;5493;48.884;8.338;2023-07-29T11:59:43;99629.59;;;26.71;100.00
10881;BME280;5493;48.884;8.338;2023-07-29T12:02:11;99636.50;;;26.65;100.00
10881;BME280;5493;48.884;8.338;2023-07-29T12:04:39;99629.09;;;27.14;100.00
10881;BME280;5493;48.884;8.338;2023-07-29T12:07:06;99634.44;;;27.56;100.00
10881;BME280;5493;48.884;8.338;2023-07-29T12:09:33;99625.53;;;27.50;100.00
10881;BME280;5493;48.884;8.338;2023-07-29T12:12:01;99638.47;;;27.46;100.00
10881;BME280;5493;48.884;8.338;2023-07-29T12:14:28;99630.31;;;27.89;100.00
10881;BME280;5493;48.884;8.338;2023-07-29T12:16:55;99626.34;;;27.14;100.00
10881;BME280;5493;48.884;8.338;2023-07-29T12:19:21;99628.03;;;27.79;100.00
10881;BME280;5493;48.884;8.338;2023-07-29T12:21:48;99629.94;;;27.51;100.00
10881;BME280;5493;48.884;8.338;2023-07-29T12:24:15;99631.41;;;27.73;100.00
10881;BME280;5493;48.884;8.338;2023-07-29T12:26:41;99620.19;;;27.81;100.00
10881;BME280;5493;48.884;8.338;2023-07-29T12:29:18;99633.25;;;28.21;100.00
10881;BME280;5493;48.884;8.338;2023-07-29T12:31:45;99629.16;;;28.30;100.00
10881;BME280;5493;48.884;8.338;2023-07-29T12:34:17;99639.25;;;28.23;100.00
10881;BME280;5493;48.884;8.338;2023-07-29T12:36:46;99632.13;;;28.10;100.00
10881;BME280;5493;48.884;8.338;2023-07-29T12:39:17;99641.88;;;27.92;100.00
10881;BME280;5493;48.884;8.338;2023-07-29T12:41:44;99639.03;;;28.16;100.00
10881;BME280;5493;48.884;8.338;2023-07-29T12:44:10;99649.31;;;28.15;100.00
10881;BME280;5493;48.884;8.338;2023-07-29T12:46:38;99641.47;;;28.17;100.00
10881;BME280;5493;48.884;8.338;2023-07-29T12:49:04;99644.06;;;28.26;100.00
10881;BME280;5493;48.884;8.338;2023-07-29T12:51:31;99638.88;;;27.84;100.00
10881;BME280;5493;48.884;8.338;2023-07-29T12:53:58;99637.47;;;28.30;100.00
10881;BME280;5493;48.884;8.338;2023-07-29T12:56:24;99630.78;;;27.92;100.00
10881;BME280;5493;48.884;8.338;2023-07-29T12:58:51;99630.84;;;28.07;100.00
10881;BME280;5493;48.884;8.338;2023-07-29T13:01:18;99633.66;;;28.35;100.00
10881;BME280;5493;48.884;8.338;2023-07-29T13:03:46;99624.91;;;28.49;100.00